Time;durP1;ratioP1;P1;durP2;ratioP2;P2;SDS_P1;SDS_P2;PMS_P1;PMS_P2;Temp;Humidity;BMP_temperature;BMP_pressure;BME280_temperature;BME280_humidity;BME280_pressure;Samples;Min_cycle;Max_cycle;Signal;HPM_P1;HPM_P2
2021/03/02 00:00:38;;;;;;;91.47;38.80;;;;;;;0.22;92.16;97239.34;5089881;28;20202;-66
2021/03/02 00:03:06;;;;;;;80.03;35.27;;;;;;;0.36;92.00;97241.03;5090135;28;20223;-66
2021/03/02 00:05:34;;;;;;;62.10;28.83;;;;;;;0.48;91.35;97241.31;5089804;28;20678;-66
2021/03/02 00:08:01;;;;;;;57.13;26.57;;;;;;;0.60;91.04;97247.53;5090169;28;20216;-66
2021/03/02 00:10:30;;;;;;;50.53;24.73;;;;;;;0.57;91.08;97242.75;5090329;28;20261;-66
2021/03/02 00:12:57;;;;;;;46.77;25.10;;;;;;;0.63;91.07;97237.69;5090055;28;20744;-66
2021/03/02 00:15:24;;;;;;;66.43;30.50;;;;;;;0.53;91.88;97239.00;5090095;28;20189;-66
2021/03/02 00:17:52;;;;;;;60.50;28.43;;;;;;;0.53;92.23;97241.56;5090251;28;20246;-66
2021/03/02 00:20:22;;;;;;;40.90;21.13;;;;;;;0.47;92.26;97232.88;5089944;28;20339;-66
2021/03/02 00:22:57;;;;;;;37.87;20.20;;;;;;;0.45;92.54;97234.81;5089625;28;20192;-66
2021/03/02 00:25:27;;;;;;;39.87;19.27;;;;;;;0.35;93.21;97230.00;5089775;28;20208;-66
2021/03/02 00:27:57;;;;;;;38.00;19.00;;;;;;;0.36;94.03;97230.81;5089795;28;20207;-65
2021/03/02 00:30:24;;;;;;;33.77;18.50;;;;;;;0.36;93.96;97230.81;5089881;28;20192;-65
2021/03/02 00:32:52;;;;;;;49.50;25.00;;;;;;;0.31;94.86;97223.69;5089667;28;20290;-65
2021/03/02 00:35:19;;;;;;;46.80;23.63;;;;;;;0.26;95.08;97222.66;5089600;28;20194;-65
2021/03/02 00:37:48;;;;;;;35.20;19.33;;;;;;;0.36;95.76;97225.69;5089827;28;20273;-67
2021/03/02 00:40:16;;;;;;;38.10;19.33;;;;;;;0.49;95.35;97219.91;5089820;28;20197;-67
2021/03/02 00:42:43;;;;;;;50.23;23.50;;;;;;;0.56;95.38;97220.72;5089735;28;20202;-66
2021/03/02 00:45:12;;;;;;;43.47;21.83;;;;;;;0.60;94.36;97217.59;5089729;28;20671;-66
2021/03/02 00:47:51;;;;;;;49.40;23.60;;;;;;;0.67;93.61;97210.75;5089467;28;20315;-66
2021/03/02 00:50:19;;;;;;;55.33;23.47;;;;;;;0.74;93.54;97211.59;5092124;28;20196;-66
2021/03/02 00:52:45;;;;;;;33.07;17.27;;;;;;;0.56;93.39;97226.63;5093173;28;20286;-66
2021/03/02 00:55:12;;;;;;;33.37;16.87;;;;;;;0.51;93.86;97221.28;5093216;28;20263;-65
2021/03/02 00:57:39;;;;;;;33.73;18.30;;;;;;;0.66;93.60;97216.84;5092625;28;20319;-66
2021/03/02 01:00:08;;;;;;;426.10;189.80;;;;;;;0.69;93.17;97213.94;5092955;28;20227;-66
2021/03/02 01:02:37;;;;;;;111.60;51.07;;;;;;;0.63;92.36;97219.78;5093273;28;20193;-66
2021/03/02 01:05:04;;;;;;;60.40;30.00;;;;;;;0.52;92.46;97212.63;5093431;28;20634;-65
2021/03/02 01:07:31;;;;;;;63.97;27.00;;;;;;;0.31;92.17;97212.69;5092746;28;20269;-66
2021/03/02 01:09:58;;;;;;;50.73;24.73;;;;;;;0.35;92.76;97211.31;5092964;28;20223;-65
2021/03/02 01:12:28;;;;;;;47.80;24.60;;;;;;;0.39;92.36;97207.44;5092751;28;20215;-65
2021/03/02 01:14:55;;;;;;;47.80;24.53;;;;;;;0.37;92.06;97214.50;5092810;28;20253;-66
2021/03/02 01:17:22;;;;;;;47.90;24.10;;;;;;;0.38;91.98;97213.53;5092997;28;20243;-66
2021/03/02 01:19:50;;;;;;;46.53;23.00;;;;;;;0.28;92.02;97207.94;5092853;28;20266;-66
2021/03/02 01:22:17;;;;;;;51.47;25.23;;;;;;;0.40;92.27;97214.13;5092655;28;20271;-66
2021/03/02 01:24:44;;;;;;;46.43;24.57;;;;;;;0.45;91.76;97211.78;5092405;28;20735;-66
2021/03/02 01:27:11;;;;;;;46.40;22.70;;;;;;;0.07;92.64;97208.78;5092293;28;20669;-65
2021/03/02 01:29:38;;;;;;;46.90;23.67;;;;;;;-0.01;93.62;97212.25;5092485;28;20224;-66
2021/03/02 01:32:06;;;;;;;50.47;24.60;;;;;;;0.02;93.82;97210.28;5092595;28;20196;-65
2021/03/02 01:34:34;;;;;;;51.23;26.20;;;;;;;0.00;94.08;97195.16;5092183;28;20195;-65
2021/03/02 01:37:02;;;;;;;48.13;23.70;;;;;;;-0.09;94.41;97193.69;5092503;28;20203;-66
2021/03/02 01:39:29;;;;;;;44.20;24.63;;;;;;;0.00;94.28;97184.94;5092284;28;20235;-65
2021/03/02 01:41:57;;;;;;;48.70;24.87;;;;;;;0.02;94.39;97192.41;5092181;28;20215;-65
2021/03/02 01:44:25;;;;;;;41.87;23.17;;;;;;;0.03;94.57;97186.31;5092169;28;20230;-66
2021/03/02 01:46:52;;;;;;;40.47;21.57;;;;;;;-0.03;94.47;97183.53;5092185;28;20262;-65
2021/03/02 01:49:20;;;;;;;52.93;27.37;;;;;;;-0.02;95.13;97197.91;5092175;28;20326;-64
2021/03/02 01:51:47;;;;;;;48.17;26.03;;;;;;;-0.07;95.10;97195.09;5092098;28;20200;-65
2021/03/02 01:54:16;;;;;;;48.90;25.73;;;;;;;-0.17;95.26;97197.19;5091887;28;20192;-66
2021/03/02 01:56:45;;;;;;;78.97;31.73;;;;;;;-0.32;94.66;97193.09;5091941;28;20227;-66
2021/03/02 01:59:12;;;;;;;63.77;28.27;;;;;;;-0.36;94.10;97185.03;5092020;28;20311;-66
2021/03/02 02:01:40;;;;;;;53.00;26.10;;;;;;;-0.37;93.55;97193.66;5091046;28;20200;-66
2021/03/02 02:04:12;;;;;;;50.23;25.10;;;;;;;-0.49;94.15;97190.78;5091710;28;20287;-65
2021/03/02 02:06:43;;;;;;;46.67;22.73;;;;;;;-0.63;95.21;97194.19;5091734;28;20318;-66
2021/03/02 02:09:22;;;;;;;49.53;25.20;;;;;;;-0.66;95.92;97199.66;5091648;28;20196;-65
2021/03/02 02:11:56;;;;;;;48.53;25.13;;;;;;;-0.62;95.11;97197.53;5091775;28;20278;-66
2021/03/02 02:14:34;;;;;;;42.87;23.87;;;;;;;-0.77;95.74;97197.56;5091611;28;20195;-66
2021/03/02 02:17:06;;;;;;;50.50;23.93;;;;;;;-0.74;95.78;97199.75;5091658;28;20287;-65
2021/03/02 02:19:45;;;;;;;45.53;24.70;;;;;;;-0.70;94.83;97195.09;5091431;28;20199;-65
2021/03/02 02:22:22;;;;;;;45.23;22.80;;;;;;;-0.72;94.67;97189.38;5091688;28;20658;-65
2021/03/02 02:25:03;;;;;;;44.83;24.30;;;;;;;-0.75;95.12;97197.41;5091467;28;20245;-66
2021/03/02 02:27:33;;;;;;;46.60;23.70;;;;;;;-0.76;95.31;97203.47;5091528;28;20234;-65
2021/03/02 02:30:02;;;;;;;44.50;24.37;;;;;;;-0.73;94.77;97203.09;5091371;28;20272;-65
2021/03/02 02:32:30;;;;;;;50.17;24.40;;;;;;;-0.87;95.26;97207.25;5091523;28;20665;-65
2021/03/02 02:35:02;;;;;;;48.80;24.73;;;;;;;-0.82;95.16;97207.53;5091008;28;20286;-66
2021/03/02 02:37:32;;;;;;;51.97;24.73;;;;;;;-0.97;95.25;97214.41;5091353;28;20223;-66
2021/03/02 02:40:00;;;;;;;46.63;23.50;;;;;;;-0.92;94.83;97210.34;5090968;28;20846;-66
2021/03/02 02:42:29;;;;;;;39.73;22.07;;;;;;;-0.92;94.80;97212.91;5091121;28;20242;-65
2021/03/02 02:44:58;;;;;;;42.20;21.07;;;;;;;-0.98;94.81;97215.38;5090965;28;20670;-65
2021/03/02 02:47:27;;;;;;;40.90;22.00;;;;;;;-0.98;94.55;97221.25;5090809;28;20231;-66
2021/03/02 02:49:54;;;;;;;40.83;22.20;;;;;;;-1.10;94.74;97219.34;5091418;28;20207;-65
2021/03/02 02:52:22;;;;;;;38.77;21.70;;;;;;;-1.09;94.94;97219.16;5091011;28;20195;-65
2021/03/02 02:54:50;;;;;;;43.30;21.43;;;;;;;-1.10;94.38;97214.25;5090861;28;20224;-65
2021/03/02 02:57:18;;;;;;;40.37;21.73;;;;;;;-1.09;95.22;97214.06;5090485;28;20694;-65
2021/03/02 02:59:48;;;;;;;35.53;20.03;;;;;;;-1.13;94.63;97212.84;5090971;28;20278;-65
2021/03/02 03:02:20;;;;;;;39.83;20.97;;;;;;;-1.15;94.92;97209.69;5090646;28;20647;-65
2021/03/02 03:04:54;;;;;;;39.20;21.90;;;;;;;-1.17;95.40;97211.63;5090727;28;20305;-65
2021/03/02 03:07:25;;;;;;;39.77;20.73;;;;;;;-1.08;94.78;97210.53;5090630;28;20287;-64
2021/03/02 03:09:53;;;;;;;43.13;22.57;;;;;;;-1.15;95.65;97208.91;5090553;28;20231;-65
2021/03/02 03:12:23;;;;;;;45.17;21.63;;;;;;;-1.11;96.28;97210.91;5090394;28;20283;-64
2021/03/02 03:14:54;;;;;;;39.90;20.73;;;;;;;-1.18;95.80;97210.03;5090643;28;20195;-65
2021/03/02 03:17:24;;;;;;;42.20;23.23;;;;;;;-1.15;95.10;97214.00;5090522;28;20690;-64
2021/03/02 03:19:52;;;;;;;38.07;21.73;;;;;;;-1.19;95.50;97217.84;5090641;28;20282;-64
2021/03/02 03:22:19;;;;;;;38.53;20.63;;;;;;;-1.31;94.42;97215.75;5090756;28;20231;-64
2021/03/02 03:24:46;;;;;;;32.70;18.50;;;;;;;-1.40;93.59;97216.03;5090509;28;20224;-64
2021/03/02 03:27:14;;;;;;;30.53;16.97;;;;;;;-1.41;94.70;97214.44;5090282;28;20691;-65
2021/03/02 03:29:46;;;;;;;26.00;13.93;;;;;;;-1.49;95.73;97225.47;5090573;28;20215;-66
2021/03/02 03:32:14;;;;;;;22.57;12.90;;;;;;;-1.44;96.46;97224.97;5090434;28;20226;-65
2021/03/02 03:34:43;;;;;;;20.23;11.20;;;;;;;-1.38;96.04;97225.06;5090195;28;20285;-63
2021/03/02 03:37:10;;;;;;;16.67;10.43;;;;;;;-1.51;96.80;97222.34;5090208;28;20646;-64
2021/03/02 03:39:37;;;;;;;22.60;12.33;;;;;;;-1.58;97.10;97228.28;5090627;28;20199;-64
2021/03/02 03:42:04;;;;;;;24.37;11.83;;;;;;;-1.67;97.47;97235.22;5090131;28;20256;-64
2021/03/02 03:44:31;;;;;;;18.07;10.90;;;;;;;-1.64;97.32;97236.66;5090240;28;20293;-64
2021/03/02 03:46:58;;;;;;;21.93;11.47;;;;;;;-1.81;97.74;97236.00;5090133;28;20234;-65
2021/03/02 03:49:25;;;;;;;26.50;15.50;;;;;;;-1.68;97.70;97235.38;5090109;28;20627;-64
2021/03/02 03:51:55;;;;;;;30.30;16.03;;;;;;;-1.73;96.78;97236.72;5090371;28;20195;-64
2021/03/02 03:54:24;;;;;;;26.13;15.00;;;;;;;-1.97;96.99;97239.47;5090156;28;20199;-64
2021/03/02 03:56:53;;;;;;;26.33;14.20;;;;;;;-2.05;96.73;97234.44;5090009;28;20199;-65
2021/03/02 03:59:21;;;;;;;29.07;15.17;;;;;;;-2.12;97.18;97240.38;5089957;28;20285;-64
2021/03/02 04:01:50;;;;;;;27.93;14.23;;;;;;;-2.16;96.49;97237.38;5090032;28;20222;-64
2021/03/02 04:04:18;;;;;;;28.50;14.10;;;;;;;-2.12;96.46;97235.28;5090274;28;20206;-65
2021/03/02 04:06:45;;;;;;;24.07;13.27;;;;;;;-2.24;95.31;97239.97;5089837;28;20227;-63
2021/03/02 04:09:14;;;;;;;25.63;12.77;;;;;;;-2.41;93.45;97239.31;5090132;28;20202;-65
2021/03/02 04:11:41;;;;;;;46.37;16.07;;;;;;;-2.53;92.33;97242.38;5090081;28;20237;-64
2021/03/02 04:14:09;;;;;;;32.77;14.47;;;;;;;-2.64;91.91;97241.81;5089825;28;20577;-65
2021/03/02 04:16:37;;;;;;;27.77;12.80;;;;;;;-2.69;92.38;97246.59;5089680;28;20194;-64
2021/03/02 04:19:04;;;;;;;22.07;12.10;;;;;;;-2.66;92.40;97246.28;5090128;28;20196;-64
2021/03/02 04:21:31;;;;;;;24.23;12.07;;;;;;;-2.75;92.42;97249.03;5089831;28;20629;-65
2021/03/02 04:23:59;;;;;;;20.87;12.27;;;;;;;-2.72;92.43;97249.47;5090540;28;20202;-65
2021/03/02 04:26:27;;;;;;;20.87;11.47;;;;;;;-2.77;92.87;97251.72;5093474;28;20313;-64
2021/03/02 04:28:54;;;;;;;20.70;11.70;;;;;;;-2.91;92.72;97257.53;5093474;28;20281;-65
2021/03/02 04:31:21;;;;;;;24.47;12.90;;;;;;;-2.92;93.77;97252.59;5093628;28;20663;-65
2021/03/02 04:33:48;;;;;;;25.30;13.40;;;;;;;-2.95;92.74;97258.03;5093489;28;20281;-65
2021/03/02 04:36:15;;;;;;;28.33;15.00;;;;;;;-2.98;93.43;97259.13;5093768;28;20207;-65
2021/03/02 04:38:42;;;;;;;29.00;15.13;;;;;;;-3.05;93.03;97263.31;5093385;28;20226;-65
2021/03/02 04:41:08;;;;;;;29.20;14.10;;;;;;;-3.06;93.43;97254.88;5093337;28;20254;-66
2021/03/02 04:43:38;;;;;;;28.87;12.80;;;;;;;-2.95;93.29;97263.91;5093308;28;20305;-65
2021/03/02 04:46:05;;;;;;;23.37;12.93;;;;;;;-3.04;92.92;97259.81;5093211;28;20200;-66
2021/03/02 04:48:32;;;;;;;25.30;12.60;;;;;;;-3.16;93.95;97261.91;5093169;28;20225;-65
2021/03/02 04:50:59;;;;;;;25.07;13.07;;;;;;;-3.18;93.57;97265.53;5093432;28;20222;-65
2021/03/02 04:53:25;;;;;;;25.50;12.07;;;;;;;-3.16;93.27;97271.28;5093306;28;20291;-65
2021/03/02 04:55:52;;;;;;;24.27;13.50;;;;;;;-3.21;93.08;97268.44;5093315;28;20284;-65
2021/03/02 04:58:19;;;;;;;22.27;12.63;;;;;;;-3.29;94.23;97273.53;5092950;28;20246;-65
2021/03/02 05:00:47;;;;;;;23.20;11.80;;;;;;;-3.19;94.34;97264.75;5093166;28;20277;-65
2021/03/02 05:03:14;;;;;;;28.57;15.07;;;;;;;-3.28;95.52;97275.91;5092851;28;20534;-64
2021/03/02 05:05:41;;;;;;;24.80;14.17;;;;;;;-3.24;95.92;97273.84;5092943;28;20205;-64
2021/03/02 05:08:08;;;;;;;26.27;14.37;;;;;;;-3.13;96.16;97268.38;5092739;28;20267;-64
2021/03/02 05:10:35;;;;;;;23.23;13.80;;;;;;;-2.96;96.41;97266.59;5093049;28;20189;-65
2021/03/02 05:13:02;;;;;;;24.73;13.73;;;;;;;-3.01;96.67;97267.09;5092958;28;20587;-65
2021/03/02 05:15:29;;;;;;;29.70;15.97;;;;;;;-2.93;97.61;97264.50;5092929;28;20229;-66
2021/03/02 05:17:57;;;;;;;33.97;14.87;;;;;;;-2.86;97.46;97262.91;5092758;28;20231;-65
2021/03/02 05:20:24;;;;;;;33.40;15.00;;;;;;;-2.78;97.14;97267.94;5092486;28;20607;-65
2021/03/02 05:22:50;;;;;;;28.80;13.87;;;;;;;-2.75;97.76;97269.38;5092470;28;20253;-65
2021/03/02 05:25:17;;;;;;;35.83;15.40;;;;;;;-2.62;96.97;97272.97;5092703;28;20199;-66
2021/03/02 05:27:44;;;;;;;36.57;14.93;;;;;;;-2.48;97.47;97263.03;5092398;28;20232;-66
2021/03/02 05:30:25;;;;;;;36.57;15.00;;;;;;;-2.40;97.84;97276.53;5092348;28;20279;-65
2021/03/02 05:32:53;;;;;;;28.83;14.73;;;;;;;-2.26;97.78;97269.91;5093021;28;20244;-64
2021/03/02 05:35:21;;;;;;;28.83;16.40;;;;;;;-2.18;97.76;97267.31;5092186;28;20195;-65
2021/03/02 05:37:48;;;;;;;37.67;20.33;;;;;;;-2.00;98.75;97264.50;5092217;28;20273;-64
2021/03/02 05:40:16;;;;;;;35.17;16.70;;;;;;;-1.97;98.97;97277.66;5092415;28;20189;-65
2021/03/02 05:42:43;;;;;;;48.13;22.67;;;;;;;-1.89;99.25;97271.72;5092316;28;20689;-65
2021/03/02 05:45:11;;;;;;;36.00;17.63;;;;;;;-1.75;99.53;97279.41;5092188;28;20230;-65
2021/03/02 05:47:40;;;;;;;35.30;18.13;;;;;;;-1.61;99.64;97271.97;5092127;28;20938;-65
2021/03/02 05:50:08;;;;;;;27.77;17.13;;;;;;;-1.46;99.71;97273.59;5092537;28;20241;-64
2021/03/02 05:52:37;;;;;;;46.77;22.67;;;;;;;-1.34;100.00;97266.28;5092268;28;20234;-65
2021/03/02 05:55:05;;;;;;;35.43;18.50;;;;;;;-1.11;99.23;97274.69;5091846;28;20206;-65
2021/03/02 05:57:33;;;;;;;38.93;21.30;;;;;;;-0.94;99.35;97275.28;5091577;28;20267;-65
2021/03/02 06:00:00;;;;;;;41.43;25.53;;;;;;;-0.85;99.77;97274.22;5091625;28;20725;-66
2021/03/02 06:02:27;;;;;;;42.17;23.90;;;;;;;-0.68;99.51;97283.25;5091607;28;20241;-64
2021/03/02 06:04:54;;;;;;;28.43;17.73;;;;;;;-0.48;99.17;97278.38;5091529;28;20636;-64
2021/03/02 06:07:21;;;;;;;32.57;19.10;;;;;;;-0.37;98.76;97280.47;5091786;28;20257;-65
2021/03/02 06:09:50;;;;;;;68.17;35.17;;;;;;;-0.28;98.71;97283.72;5091837;28;20257;-65
2021/03/02 06:12:17;;;;;;;56.80;31.63;;;;;;;-0.08;98.72;97279.59;5091743;28;20249;-65
2021/03/02 06:14:46;;;;;;;40.57;23.73;;;;;;;0.93;98.17;97280.97;5091603;28;20199;-65
2021/03/02 06:17:12;;;;;;;34.90;18.50;;;;;;;2.39;94.54;97281.22;5091479;28;20222;-65
2021/03/02 06:19:43;;;;;;;47.93;19.87;;;;;;;3.86;86.80;97289.94;5091193;28;20231;-65
2021/03/02 06:22:31;;;;;;;34.93;18.70;;;;;;;5.15;79.32;97290.88;5091520;28;20668;-65
2021/03/02 06:25:00;;;;;;;42.23;21.83;;;;;;;5.51;74.03;97297.03;5091148;28;20203;-65
2021/03/02 06:27:27;;;;;;;40.57;21.77;;;;;;;5.62;72.43;97296.31;5090597;28;20231;-65
2021/03/02 06:30:15;;;;;;;43.20;21.80;;;;;;;5.45;72.29;97303.06;5090958;28;20204;-65
2021/03/02 06:32:43;;;;;;;51.03;23.13;;;;;;;5.20;73.62;97301.34;5091037;28;20188;-64
2021/03/02 06:35:11;;;;;;;39.67;22.40;;;;;;;4.92;72.90;97301.03;5090765;28;21302;-65
2021/03/02 06:37:43;;;;;;;40.03;22.43;;;;;;;4.49;74.16;97300.19;5090521;28;20238;-63
2021/03/02 06:40:14;;;;;;;39.20;22.97;;;;;;;4.22;74.82;97307.34;5091130;28;20295;-64
2021/03/02 06:42:41;;;;;;;48.77;25.93;;;;;;;3.90;77.17;97306.53;5090665;28;20638;-64
2021/03/02 06:45:09;;;;;;;47.67;27.20;;;;;;;3.76;78.59;97300.66;5090470;28;20279;-64
2021/03/02 06:47:38;;;;;;;50.23;27.77;;;;;;;3.61;79.10;97297.56;5090123;28;20310;-65
2021/03/02 06:50:21;;;;;;;60.87;31.60;;;;;;;3.45;80.23;97308.28;5090340;28;20202;-63
2021/03/02 06:52:48;;;;;;;51.43;28.73;;;;;;;3.30;82.12;97305.97;5090435;28;20320;-65
2021/03/02 06:55:25;;;;;;;57.03;30.23;;;;;;;3.40;81.98;97302.97;5090436;28;20292;-64
2021/03/02 06:57:53;;;;;;;62.17;34.97;;;;;;;3.53;81.72;97304.72;5090436;28;20749;-65
2021/03/02 07:00:33;;;;;;;53.63;29.97;;;;;;;3.52;80.89;97306.50;5090339;28;20576;-65
2021/03/02 07:03:00;;;;;;;58.33;31.10;;;;;;;3.58;80.24;97310.03;5090545;28;20199;-64
2021/03/02 07:05:26;;;;;;;56.93;30.70;;;;;;;3.76;80.74;97307.59;5090479;28;20196;-66
2021/03/02 07:07:56;;;;;;;55.83;28.80;;;;;;;3.86;81.67;97297.66;5090109;28;20326;-65
2021/03/02 07:10:27;;;;;;;47.07;27.93;;;;;;;4.00;81.50;97300.91;5090062;28;20242;-65
2021/03/02 07:12:55;;;;;;;47.80;27.40;;;;;;;4.07;80.64;97299.13;5090486;28;20283;-65
2021/03/02 07:15:24;;;;;;;42.27;25.37;;;;;;;4.14;80.86;97298.06;5090011;28;20192;-65
2021/03/02 07:17:54;;;;;;;38.23;23.03;;;;;;;4.21;80.04;97301.41;5090101;28;20235;-65
2021/03/02 07:20:23;;;;;;;38.60;23.40;;;;;;;4.21;81.13;97292.88;5090219;28;20227;-65
2021/03/02 07:22:51;;;;;;;37.97;22.73;;;;;;;4.27;80.35;97303.16;5089896;28;20205;-65
2021/03/02 07:25:20;;;;;;;34.37;20.63;;;;;;;4.28;79.96;97296.22;5089974;28;20318;-64
2021/03/02 07:27:49;;;;;;;34.43;21.17;;;;;;;4.36;78.48;97297.72;5089690;28;20263;-65
2021/03/02 07:30:18;;;;;;;29.80;19.93;;;;;;;4.54;79.28;97298.56;5089888;28;20254;-65
2021/03/02 07:32:46;;;;;;;29.23;18.63;;;;;;;4.74;79.87;97288.09;5090248;28;20223;-64
2021/03/02 07:35:18;;;;;;;31.07;18.87;;;;;;;5.03;79.39;97281.53;5089837;28;20288;-64
2021/03/02 07:37:45;;;;;;;28.90;17.03;;;;;;;5.23;78.04;97292.38;5089887;28;20619;-64
2021/03/02 07:40:13;;;;;;;31.67;18.80;;;;;;;5.26;76.66;97291.19;5089870;28;20698;-65
2021/03/02 07:42:41;;;;;;;31.10;18.93;;;;;;;5.38;76.22;97297.97;5089783;28;20227;-65
2021/03/02 07:45:11;;;;;;;23.73;15.83;;;;;;;5.48;74.80;97293.09;5089877;28;20191;-65
2021/03/02 07:47:49;;;;;;;26.90;16.63;;;;;;;5.58;74.19;97292.56;5089953;28;20232;-64
2021/03/02 07:50:21;;;;;;;29.33;17.63;;;;;;;5.55;76.37;97290.44;5089674;28;20196;-64
2021/03/02 07:52:49;;;;;;;28.67;17.87;;;;;;;5.59;74.30;97289.78;5089817;28;20238;-65
2021/03/02 07:55:24;;;;;;;23.53;15.73;;;;;;;5.62;75.66;97286.00;5089648;28;20333;-65
2021/03/02 07:58:15;;;;;;;23.47;15.17;;;;;;;5.72;75.08;97282.91;5089074;28;20317;-65
2021/03/02 08:00:45;;;;;;;26.97;15.73;;;;;;;5.62;74.26;97286.00;5092266;28;20195;-64
2021/03/02 08:03:24;;;;;;;23.40;14.93;;;;;;;5.74;73.58;97283.47;5092194;28;20288;-66
2021/03/02 08:05:51;;;;;;;30.77;15.07;;;;;;;5.92;73.68;97283.47;5092454;28;20195;-64
2021/03/02 08:08:35;;;;;;;33.27;16.40;;;;;;;6.00;73.06;97280.56;5092080;28;20231;-64
2021/03/02 08:11:23;;;;;;;33.47;16.57;;;;;;;6.21;72.65;97279.28;5092453;28;20191;-64
2021/03/02 08:13:51;;;;;;;24.47;14.53;;;;;;;6.50;73.41;97278.44;5092081;28;20196;-64
2021/03/02 08:16:51;;;;;;;23.40;14.27;;;;;;;6.57;72.65;97278.34;5092340;28;20198;-64
2021/03/02 08:19:37;;;;;;;25.07;15.03;;;;;;;6.82;71.09;97271.91;5092016;28;20283;-64
2021/03/02 08:22:42;;;;;;;25.60;14.53;;;;;;;7.08;70.18;97270.69;5092087;28;20203;-65
2021/03/02 08:25:11;;;;;;;20.77;13.70;;;;;;;7.18;69.33;97280.44;5078450;28;20673;-66
2021/03/02 08:27:40;;;;;;;25.77;15.97;;;;;;;7.25;68.41;97275.94;5092081;28;20284;-64
2021/03/02 08:30:09;;;;;;;26.47;15.00;;;;;;;7.10;68.23;97270.47;5092077;28;20203;-64
2021/03/02 08:32:38;;;;;;;39.63;16.23;;;;;;;7.13;67.73;97270.00;5091878;28;20195;-63
2021/03/02 08:35:06;;;;;;;34.30;15.33;;;;;;;7.37;67.44;97271.53;5091954;28;20271;-65
2021/03/02 08:37:40;;;;;;;25.13;14.50;;;;;;;7.61;66.41;97262.69;5091808;28;20283;-64
2021/03/02 08:40:08;;;;;;;18.00;12.67;;;;;;;7.68;67.04;97265.91;5091839;28;20192;-65
2021/03/02 08:42:35;;;;;;;21.50;12.17;;;;;;;7.66;65.94;97251.66;5091707;28;20282;-65
2021/03/02 08:45:07;;;;;;;16.20;10.13;;;;;;;7.66;63.97;97249.84;5092112;28;20200;-65
2021/03/02 08:47:38;;;;;;;16.77;9.77;;;;;;;7.79;64.35;97241.81;5091740;28;20313;-65
2021/03/02 08:50:06;;;;;;;34.33;10.20;;;;;;;8.00;62.71;97244.75;5091840;28;20211;-64
2021/03/02 08:52:37;;;;;;;27.17;12.17;;;;;;;8.19;63.04;97235.75;5091452;28;20223;-66
2021/03/02 08:55:06;;;;;;;16.30;10.23;;;;;;;8.12;63.04;97242.84;5091551;28;20671;-65
2021/03/02 08:57:43;;;;;;;19.17;9.77;;;;;;;8.00;61.87;97231.81;5059223;28;921087;-66
2021/03/02 09:00:14;;;;;;;16.70;10.23;;;;;;;8.06;63.28;97233.47;5092618;28;20229;-64
2021/03/02 09:02:46;;;;;;;16.93;10.10;;;;;;;8.08;63.81;97239.19;5092736;28;20621;-66
2021/03/02 09:05:16;;;;;;;16.20;9.40;;;;;;;8.46;61.77;97233.34;5092731;28;20275;-65
2021/03/02 09:08:02;;;;;;;12.90;8.23;;;;;;;8.59;62.04;97226.03;5092612;28;20232;-65
2021/03/02 09:10:29;;;;;;;16.43;8.83;;;;;;;8.66;60.61;97232.84;5092319;28;20282;-65
2021/03/02 09:12:56;;;;;;;13.50;8.00;;;;;;;8.72;60.08;97229.31;5092605;28;20231;-65
2021/03/02 09:15:35;;;;;;;11.40;7.20;;;;;;;8.86;59.73;97230.56;5092367;28;20224;-65
2021/03/02 09:18:20;;;;;;;18.37;8.73;;;;;;;9.02;59.22;97229.69;5092506;28;20625;-65
2021/03/02 09:20:50;;;;;;;10.73;5.40;;;;;;;9.19;55.54;97214.88;5092483;28;20669;-65
2021/03/02 09:23:18;;;;;;;15.30;7.50;;;;;;;9.21;56.76;97218.03;5092567;28;20195;-65
2021/03/02 09:25:45;;;;;;;9.43;5.40;;;;;;;9.39;55.68;97224.72;5092354;28;20196;-66
2021/03/02 09:28:16;;;;;;;9.13;5.63;;;;;;;9.46;54.95;97225.31;5092133;28;20306;-65
2021/03/02 09:30:43;;;;;;;9.03;5.97;;;;;;;9.49;55.18;97217.81;5092025;28;20565;-64
2021/03/02 09:33:11;;;;;;;12.70;6.07;;;;;;;9.28;56.17;97218.63;5092214;28;20227;-65
2021/03/02 09:35:39;;;;;;;9.97;5.87;;;;;;;9.62;55.12;97218.47;5092276;28;20275;-65
2021/03/02 09:38:06;;;;;;;7.60;5.37;;;;;;;9.63;53.35;97212.25;5091913;28;20325;-65
2021/03/02 09:40:40;;;;;;;7.97;4.73;;;;;;;9.70;52.93;97211.03;5091898;28;20227;-66
2021/03/02 09:43:07;;;;;;;9.43;5.47;;;;;;;9.85;51.97;97215.59;5092386;28;20674;-65
2021/03/02 09:45:35;;;;;;;9.07;5.17;;;;;;;10.05;52.66;97207.97;5092224;28;20626;-66
2021/03/02 09:48:06;;;;;;;10.00;5.50;;;;;;;10.00;51.86;97204.56;5092108;28;20223;-64
2021/03/02 09:50:36;;;;;;;10.73;5.57;;;;;;;10.08;51.40;97210.06;5091941;28;20291;-65
2021/03/02 09:53:13;;;;;;;6.53;4.83;;;;;;;10.13;50.87;97204.91;5091912;28;20239;-65
2021/03/02 09:55:42;;;;;;;6.70;4.63;;;;;;;9.92;51.72;97203.19;5092254;28;20260;-65
2021/03/02 09:58:11;;;;;;;6.97;4.77;;;;;;;10.00;49.82;97192.34;5091249;28;20274;-65
2021/03/02 10:00:49;;;;;;;7.67;4.93;;;;;;;10.18;50.73;97193.81;5091813;28;20258;-66
2021/03/02 10:03:17;;;;;;;7.80;4.90;;;;;;;10.36;49.60;97193.44;5091588;28;20282;-66
2021/03/02 10:05:45;;;;;;;6.07;4.40;;;;;;;10.57;51.13;97183.94;5091632;28;20192;-66
2021/03/02 10:08:25;;;;;;;7.43;4.70;;;;;;;10.96;49.62;97187.78;5091296;28;20306;-65
2021/03/02 10:10:54;;;;;;;5.50;4.23;;;;;;;10.82;48.04;97180.69;5091409;28;20196;-65
2021/03/02 10:13:24;;;;;;;7.27;4.63;;;;;;;10.72;48.88;97176.22;5091400;28;20289;-66
2021/03/02 10:16:09;;;;;;;10.17;5.73;;;;;;;10.73;47.15;97172.59;5091433;28;20736;-65
2021/03/02 10:18:36;;;;;;;9.67;5.20;;;;;;;10.79;48.63;97166.41;5091182;28;20235;-66
2021/03/02 10:21:04;;;;;;;7.53;4.90;;;;;;;10.66;49.67;97159.06;5091040;28;20732;-66
2021/03/02 10:23:32;;;;;;;7.97;4.80;;;;;;;10.45;48.25;97159.97;5090666;28;20282;-65
2021/03/02 10:26:00;;;;;;;7.13;4.70;;;;;;;10.67;48.73;97158.00;5091173;28;20211;-66
2021/03/02 10:28:31;;;;;;;6.40;4.67;;;;;;;10.65;48.42;97160.88;5090815;28;20277;-66
2021/03/02 10:30:58;;;;;;;10.80;5.73;;;;;;;10.61;46.85;97154.59;5090759;28;20286;-66
2021/03/02 10:33:25;;;;;;;8.77;5.03;;;;;;;10.73;50.77;97151.78;5090736;28;20195;-65
2021/03/02 10:35:52;;;;;;;6.93;4.80;;;;;;;10.93;48.54;97148.50;5090841;28;20199;-66
2021/03/02 10:38:19;;;;;;;8.00;5.00;;;;;;;11.04;45.88;97143.09;5090809;28;20286;-66
2021/03/02 10:40:47;;;;;;;8.17;5.30;;;;;;;10.95;48.05;97134.22;5090720;28;20207;-67
2021/03/02 10:43:14;;;;;;;23.40;8.10;;;;;;;11.22;47.98;97136.63;5090734;28;20686;-66
2021/03/02 10:45:41;;;;;;;10.03;5.30;;;;;;;10.99;47.49;97132.66;5090714;28;20195;-66
2021/03/02 10:48:09;;;;;;;7.47;5.17;;;;;;;11.03;46.87;97131.13;5090463;28;20267;-66
2021/03/02 10:50:36;;;;;;;7.97;5.03;;;;;;;11.11;45.22;97115.00;5090433;28;20638;-66
2021/03/02 10:53:03;;;;;;;7.23;5.03;;;;;;;11.27;45.35;97121.03;5090542;28;20198;-65
2021/03/02 10:55:30;;;;;;;6.97;4.70;;;;;;;11.23;44.93;97112.97;5090524;28;20286;-66
2021/03/02 10:57:57;;;;;;;7.93;5.30;;;;;;;10.96;45.94;97104.53;5090285;28;20318;-66
2021/03/02 11:00:25;;;;;;;8.30;4.87;;;;;;;11.33;47.50;97107.00;5090382;28;20326;-66
2021/03/02 11:02:52;;;;;;;6.97;4.27;;;;;;;11.53;47.25;97107.03;5090361;28;20203;-66
2021/03/02 11:05:19;;;;;;;9.27;5.07;;;;;;;11.64;45.43;97094.78;5090941;28;20245;-65
2021/03/02 11:07:46;;;;;;;8.70;5.30;;;;;;;11.94;45.87;97089.59;5090493;28;20280;-66
2021/03/02 11:10:14;;;;;;;13.07;5.83;;;;;;;12.02;45.72;97083.84;5090184;28;20290;-66
2021/03/02 11:12:42;;;;;;;13.77;7.07;;;;;;;11.95;45.01;97080.75;5090116;28;20546;-65
2021/03/02 11:15:12;;;;;;;9.37;4.80;;;;;;;12.01;44.42;97068.47;5090523;28;20195;-66
2021/03/02 11:18:04;;;;;;;9.53;5.13;;;;;;;11.76;45.25;97063.28;5090578;28;20202;-65
2021/03/02 11:20:32;;;;;;;5.33;4.27;;;;;;;11.88;42.91;97054.19;5090148;28;20279;-66
2021/03/02 11:22:58;;;;;;;5.10;4.00;;;;;;;11.90;43.00;97053.94;5089983;28;20261;-66
2021/03/02 11:25:25;;;;;;;10.17;5.07;;;;;;;12.26;45.16;97049.41;5090005;28;20644;-64
2021/03/02 11:27:52;;;;;;;7.93;4.70;;;;;;;12.47;44.65;97053.50;5090055;28;20263;-66
2021/03/02 11:30:21;;;;;;;9.80;5.40;;;;;;;12.69;43.22;97053.94;5090176;28;20192;-66
2021/03/02 11:32:48;;;;;;;6.17;4.57;;;;;;;12.67;43.24;97053.44;5089556;28;20686;-66
2021/03/02 11:35:16;;;;;;;7.47;4.40;;;;;;;12.60;43.12;97049.56;5090355;28;20199;-65